Cove Creek, Virginia
Current Conditions -  °F | °C
As of 4:52 AM on Saturday 29 Nov 2014 (Local Time) from KBLF Reporting Station
Clear Clear  
Wind Chill: 24°   Ceiling: Unl
Heat Index: 24°   Visibility: 10mi
Dew Point: 16°   Wind: 3mph
Humidity: 71%   Direction: 140°SE
Pressure: 30.15"   Gusts: NA
Location:  37.1593°N, 81.1986°W
Report Text: KBLF 290952Z AUTO 14003KT 10SM CLR M04/M09 A3015 RMK AO2 SLP234 T10441089 $
Loading
Personal Weather Stations






























Interactive Weather Map New forecast layout! Learn more

10-Day Weather Forecast

Advertisements
Track Severe Weather on mobile